Time;durP1;ratioP1;P1;durP2;ratioP2;P2;SDS_P1;SDS_P2;PMS_P1;PMS_P2;Temp;Humidity;BMP_temperature;BMP_pressure;BME280_temperature;BME280_humidity;BME280_pressure;Samples;Min_cycle;Max_cycle;Signal;HPM_P1;HPM_P2
2023/10/02 00:01:06;;;;;;;12.77;7.77;;;15.00;99.90;;;;;;5012465;28;20443;-58
2023/10/02 00:03:34;;;;;;;12.57;7.50;;;15.00;99.90;;;;;;5012804;28;20440;-58
2023/10/02 00:06:02;;;;;;;12.87;7.87;;;15.00;99.90;;;;;;5011630;28;20499;-58
2023/10/02 00:08:42;;;;;;;12.30;8.03;;;15.00;99.90;;;;;;5011564;28;20566;-57
2023/10/02 00:14:22;;;;;;;9.10;7.20;;;15.00;99.90;;;;;;5012425;28;20431;-57
2023/10/02 00:16:59;;;;;;;9.87;6.73;;;15.00;99.90;;;;;;5012389;28;20487;-57
2023/10/02 00:19:30;;;;;;;10.27;6.67;;;15.00;99.90;;;;;;5011551;28;20542;-58
2023/10/02 00:22:05;;;;;;;19.87;8.17;;;15.00;99.90;;;;;;5008992;28;20537;-57
2023/10/02 00:24:33;;;;;;;11.13;7.20;;;15.00;99.90;;;;;;5008939;28;20463;-58
2023/10/02 00:27:01;;;;;;;13.67;7.23;;;15.00;99.90;;;;;;5002554;28;20464;-57
2023/10/02 00:29:28;;;;;;;10.17;7.93;;;15.00;99.90;;;;;;5007795;28;21256;-58
2023/10/02 00:31:55;;;;;;;12.07;7.37;;;15.00;99.90;;;;;;5010977;28;20558;-58
2023/10/02 00:34:31;;;;;;;11.10;6.73;;;15.00;99.90;;;;;;5003762;28;20452;-58
2023/10/02 00:37:01;;;;;;;11.80;6.70;;;15.00;99.90;;;;;;5007824;28;20519;-58
2023/10/02 00:39:32;;;;;;;12.73;7.00;;;15.00;99.90;;;;;;5004222;28;20499;-58
2023/10/02 00:42:15;;;;;;;9.87;7.17;;;15.00;99.90;;;;;;5010389;28;20586;-58
2023/10/02 00:44:58;;;;;;;12.20;7.00;;;15.00;99.90;;;;;;4999076;28;20459;-58
2023/10/02 00:47:48;;;;;;;10.77;7.03;;;15.00;99.90;;;;;;4995002;28;20455;-57
2023/10/02 00:50:18;;;;;;;11.40;6.50;;;15.00;99.90;;;;;;5005905;28;20460;-57
2023/10/02 00:52:51;;;;;;;10.97;6.67;;;15.10;99.90;;;;;;4999622;28;20485;-58
2023/10/02 00:55:20;;;;;;;13.57;6.83;;;15.10;99.90;;;;;;5001821;28;21137;-58
2023/10/02 00:57:50;;;;;;;9.50;6.87;;;15.10;99.90;;;;;;4996120;28;20520;-58
2023/10/02 01:00:19;;;;;;;11.30;6.87;;;15.10;99.90;;;;;;5010668;28;20470;-59
2023/10/02 01:02:49;;;;;;;12.13;7.77;;;15.10;99.90;;;;;;5009507;28;20849;-56
2023/10/02 01:05:17;;;;;;;14.60;7.63;;;15.10;99.90;;;;;;5000577;28;20475;-59
2023/10/02 01:07:46;;;;;;;10.00;7.43;;;15.10;99.90;;;;;;5011558;28;20880;-57
2023/10/02 01:10:22;;;;;;;11.03;7.43;;;15.10;99.90;;;;;;4999592;28;20448;-59
2023/10/02 01:12:50;;;;;;;11.23;7.20;;;15.10;99.90;;;;;;5001150;28;20480;-57
2023/10/02 01:15:20;;;;;;;9.53;7.23;;;15.10;99.90;;;;;;5004603;28;20458;-57
2023/10/02 01:17:48;;;;;;;11.10;7.40;;;15.10;99.90;;;;;;5003925;28;20547;-58
2023/10/02 01:20:20;;;;;;;9.10;6.30;;;15.10;99.90;;;;;;5004251;28;20460;-57
2023/10/02 01:22:52;;;;;;;13.80;7.60;;;15.10;99.90;;;;;;5002667;28;21016;-58
2023/10/02 01:25:23;;;;;;;12.67;7.43;;;15.10;99.90;;;;;;4997684;28;21232;-57
2023/10/02 01:27:55;;;;;;;14.00;7.53;;;15.20;99.90;;;;;;5013316;28;20880;-57
2023/10/02 01:30:24;;;;;;;14.27;7.73;;;15.20;99.90;;;;;;5013322;28;20460;-58
2023/10/02 01:35:48;;;;;;;11.27;7.80;;;15.20;99.90;;;;;;5012129;28;20535;-58
2023/10/02 01:38:18;;;;;;;11.97;7.23;;;15.20;99.90;;;;;;5013613;28;20463;-57
2023/10/02 01:40:49;;;;;;;13.10;7.10;;;15.20;99.90;;;;;;5006100;28;20464;-59
2023/10/02 01:43:16;;;;;;;9.13;6.50;;;15.20;99.90;;;;;;5014809;28;20471;-57
2023/10/02 01:45:43;;;;;;;11.53;6.90;;;15.20;99.90;;;;;;5015066;28;20443;-58
2023/10/02 01:48:14;;;;;;;16.03;7.60;;;15.20;99.90;;;;;;5014629;28;20439;-58
2023/10/02 01:50:43;;;;;;;10.90;7.23;;;15.20;99.90;;;;;;5013544;28;20490;-58
2023/10/02 01:53:28;;;;;;;10.10;6.70;;;15.20;99.90;;;;;;5014801;28;20700;-57
2023/10/02 01:56:00;;;;;;;11.77;6.60;;;15.20;99.90;;;;;;5008858;28;20451;-58
2023/10/02 01:58:27;;;;;;;12.77;7.27;;;15.20;99.90;;;;;;5010343;28;20459;-59
2023/10/02 02:00:54;;;;;;;15.30;7.80;;;15.20;99.90;;;;;;5014501;28;20452;-59
2023/10/02 02:03:22;;;;;;;11.77;6.33;;;15.20;99.90;;;;;;5014388;28;20448;-57
2023/10/02 02:05:49;;;;;;;13.03;7.23;;;15.20;99.90;;;;;;5014479;28;21039;-58
2023/10/02 02:08:25;;;;;;;11.50;6.80;;;15.20;99.90;;;;;;5013572;28;20482;-57
2023/10/02 02:10:53;;;;;;;14.27;7.53;;;15.20;99.90;;;;;;5014593;28;20438;-58
2023/10/02 02:13:22;;;;;;;10.13;6.90;;;15.20;99.90;;;;;;5011390;28;20574;-56
2023/10/02 02:16:06;;;;;;;12.00;6.50;;;15.20;99.90;;;;;;5008149;28;20567;-59
2023/10/02 02:18:33;;;;;;;13.80;6.67;;;15.20;99.90;;;;;;5010494;28;20542;-57
2023/10/02 02:20:59;;;;;;;11.50;6.63;;;15.20;99.90;;;;;;5013067;28;20463;-57
2023/10/02 02:23:27;;;;;;;9.23;6.70;;;15.20;99.90;;;;;;5014338;28;20444;-57
2023/10/02 02:25:54;;;;;;;11.33;7.00;;;15.20;99.90;;;;;;5013873;28;20440;-58
2023/10/02 02:28:22;;;;;;;15.40;7.23;;;15.20;99.90;;;;;;5010622;28;20470;-58
2023/10/02 02:30:49;;;;;;;8.57;6.60;;;15.20;99.90;;;;;;5012694;28;20455;-58
2023/10/02 02:33:16;;;;;;;12.47;7.83;;;15.30;99.90;;;;;;5014323;28;20468;-57
2023/10/02 02:35:44;;;;;;;9.63;6.13;;;15.20;99.90;;;;;;5006465;28;20456;-57
2023/10/02 02:38:14;;;;;;;11.57;6.87;;;15.30;99.90;;;;;;5013095;28;20494;-58
2023/10/02 02:40:41;;;;;;;10.00;6.60;;;15.30;99.90;;;;;;5012994;28;20495;-57
2023/10/02 02:43:19;;;;;;;7.23;5.93;;;15.30;99.90;;;;;;5012751;28;20495;-58
2023/10/02 02:45:47;;;;;;;10.00;6.60;;;15.30;99.90;;;;;;5006575;28;20444;-58
2023/10/02 02:48:15;;;;;;;13.60;6.40;;;15.20;99.90;;;;;;5012668;28;20463;-59
2023/10/02 02:50:43;;;;;;;11.00;7.27;;;15.20;99.90;;;;;;5010337;28;20821;-57
2023/10/02 02:53:23;;;;;;;10.97;6.23;;;15.20;99.90;;;;;;5013699;28;20467;-57
2023/10/02 02:56:14;;;;;;;10.43;6.53;;;15.20;99.90;;;;;;5013105;28;20962;-59
2023/10/02 02:58:44;;;;;;;12.23;6.87;;;15.20;99.90;;;;;;5012670;28;20842;-57
2023/10/02 03:01:16;;;;;;;11.27;8.03;;;15.20;99.90;;;;;;5013470;28;20539;-58
2023/10/02 03:03:44;;;;;;;10.60;6.57;;;15.20;99.90;;;;;;5004105;28;20460;-58
2023/10/02 03:06:18;;;;;;;11.60;7.03;;;15.20;99.90;;;;;;5013017;28;20459;-59
2023/10/02 03:08:46;;;;;;;9.93;6.77;;;15.20;99.90;;;;;;5010525;28;20513;-59
2023/10/02 03:11:19;;;;;;;12.07;7.50;;;15.20;99.90;;;;;;5012687;28;20808;-59
2023/10/02 03:13:47;;;;;;;9.50;6.70;;;15.20;99.90;;;;;;5013237;28;20497;-58
2023/10/02 03:16:18;;;;;;;16.43;7.57;;;15.20;99.90;;;;;;5013352;28;20799;-59
2023/10/02 03:18:48;;;;;;;17.70;7.20;;;15.10;99.90;;;;;;5009682;28;20458;-58
2023/10/02 03:21:22;;;;;;;11.20;6.80;;;15.10;99.90;;;;;;5010134;28;20479;-58
2023/10/02 03:23:49;;;;;;;11.87;5.90;;;15.10;99.90;;;;;;5005849;28;20524;-60
2023/10/02 03:26:37;;;;;;;15.00;7.73;;;15.10;99.90;;;;;;5013094;28;20447;-58
2023/10/02 03:29:05;;;;;;;12.60;7.43;;;15.10;99.90;;;;;;5011907;28;20517;-59
2023/10/02 03:31:38;;;;;;;10.07;6.90;;;14.90;99.90;;;;;;5011855;28;20467;-58
2023/10/02 03:36:49;;;;;;;11.23;7.30;;;14.80;99.90;;;;;;5004446;28;20561;-59
2023/10/02 03:39:51;;;;;;;10.67;7.17;;;14.70;99.90;;;;;;5010415;28;20475;-57
2023/10/02 03:42:12;;;;;;;16.33;7.20;;;14.70;99.90;;;;;;4999265;28;20897;-58
2023/10/02 03:44:39;;;;;;;18.60;6.50;;;14.60;99.90;;;;;;4999537;28;20461;-59
2023/10/02 03:47:07;;;;;;;13.00;6.10;;;14.60;99.90;;;;;;5000384;28;21157;-57
2023/10/02 03:49:34;;;;;;;9.70;6.27;;;14.50;99.90;;;;;;5008446;28;20803;-59
2023/10/02 03:52:00;;;;;;;9.93;6.70;;;14.40;99.90;;;;;;5012607;28;20463;-57
2023/10/02 03:54:29;;;;;;;8.30;6.17;;;14.40;99.90;;;;;;5003000;28;20489;-58
2023/10/02 03:56:56;;;;;;;14.30;6.63;;;14.40;99.90;;;;;;5010450;28;20484;-59
2023/10/02 03:59:26;;;;;;;8.73;6.43;;;14.30;99.90;;;;;;5012383;28;20444;-57
2023/10/02 04:01:55;;;;;;;13.50;7.93;;;14.30;99.90;;;;;;5011209;28;20812;-59
2023/10/02 04:04:24;;;;;;;14.77;7.20;;;14.30;99.90;;;;;;5011573;28;20459;-58
2023/10/02 04:06:53;;;;;;;11.70;7.60;;;14.20;99.90;;;;;;5012039;28;20452;-59
2023/10/02 04:09:23;;;;;;;10.97;7.23;;;14.20;99.90;;;;;;5012356;28;20574;-59
2023/10/02 04:11:50;;;;;;;10.50;7.33;;;14.20;99.90;;;;;;5003222;28;20483;-59
2023/10/02 04:14:18;;;;;;;12.30;6.70;;;14.10;99.90;;;;;;5011470;28;20957;-58
2023/10/02 04:16:49;;;;;;;8.50;5.80;;;14.10;99.90;;;;;;5011204;28;21005;-59
2023/10/02 04:19:16;;;;;;;10.03;6.80;;;14.00;99.90;;;;;;5011801;28;20475;-57
2023/10/02 04:21:47;;;;;;;10.53;7.10;;;14.00;99.90;;;;;;5011797;28;20466;-59
2023/10/02 04:24:13;;;;;;;10.23;6.97;;;14.00;99.90;;;;;;5012070;28;20440;-59
2023/10/02 04:26:44;;;;;;;11.03;6.30;;;13.90;99.90;;;;;;5011946;28;22202;-57
2023/10/02 04:29:14;;;;;;;9.23;6.63;;;13.90;99.90;;;;;;5010725;28;20205;-58
2023/10/02 04:31:44;;;;;;;11.00;6.33;;;13.80;99.90;;;;;;5009202;28;20479;-58
2023/10/02 04:34:24;;;;;;;9.57;6.10;;;13.80;99.90;;;;;;5010101;28;20819;-58
2023/10/02 04:36:51;;;;;;;11.40;6.93;;;13.80;99.90;;;;;;5004420;28;20971;-59
2023/10/02 04:42:15;;;;;;;12.50;6.40;;;13.70;99.90;;;;;;5011643;28;20471;-54
2023/10/02 04:44:47;;;;;;;12.53;6.30;;;13.70;99.90;;;;;;4996988;28;20459;-54
2023/10/02 04:47:18;;;;;;;9.43;6.37;;;13.70;99.90;;;;;;5011862;28;20448;-55
2023/10/02 04:50:34;;;;;;;11.43;6.27;;;13.60;99.90;;;;;;5002210;28;20459;-54
2023/10/02 04:52:57;;;;;;;12.73;7.03;;;13.60;99.90;;;;;;5003576;28;20463;-54
2023/10/02 04:55:31;;;;;;;10.57;6.47;;;13.60;99.90;;;;;;5007919;28;20513;-54
2023/10/02 04:58:04;;;;;;;13.63;8.00;;;13.50;99.90;;;;;;4997470;28;20471;-54
2023/10/02 05:00:34;;;;;;;9.00;6.43;;;13.50;99.90;;;;;;5005163;28;20459;-58
2023/10/02 05:03:18;;;;;;;9.27;6.47;;;13.40;99.90;;;;;;5009924;28;20464;-57
2023/10/02 05:05:49;;;;;;;9.93;6.97;;;13.40;99.90;;;;;;5010215;28;20455;-58
2023/10/02 05:08:21;;;;;;;11.30;7.03;;;13.40;99.90;;;;;;4999009;28;20466;-57
2023/10/02 05:10:49;;;;;;;10.10;7.10;;;13.40;99.90;;;;;;4999674;28;20503;-56
2023/10/02 05:13:44;;;;;;;9.03;6.10;;;13.30;99.90;;;;;;5003373;28;20820;-57
2023/10/02 05:16:11;;;;;;;10.50;5.97;;;13.30;1.40;;;;;;5000497;28;20535;-58
2023/10/02 05:18:39;;;;;;;11.07;6.87;;;13.30;1.40;;;;;;5002863;28;20484;-57
2023/10/02 05:21:05;;;;;;;11.53;6.57;;;13.30;99.90;;;;;;5009979;28;20467;-58
2023/10/02 05:23:33;;;;;;;11.20;6.17;;;13.30;1.40;;;;;;5010658;28;20451;-58
2023/10/02 05:26:02;;;;;;;9.07;6.80;;;13.30;1.40;;;;;;5006703;28;20717;-57
2023/10/02 05:28:42;;;;;;;9.50;6.30;;;13.20;99.90;;;;;;4996032;28;20452;-58
2023/10/02 05:31:10;;;;;;;12.03;6.10;;;13.30;99.90;;;;;;4997034;28;20448;-58
2023/10/02 05:33:37;;;;;;;10.17;6.53;;;13.30;99.90;;;;;;4992880;28;20507;-58
2023/10/02 05:36:06;;;;;;;8.97;6.83;;;13.20;99.90;;;;;;5011109;28;20459;-57
2023/10/02 05:38:34;;;;;;;9.97;6.50;;;13.20;99.90;;;;;;5009390;28;20487;-57
2023/10/02 05:41:03;;;;;;;8.90;6.73;;;13.20;99.90;;;;;;5009020;28;20496;-58
2023/10/02 05:43:31;;;;;;;11.83;6.83;;;13.30;99.90;;;;;;5007691;28;20466;-54
2023/10/02 05:46:01;;;;;;;7.80;5.63;;;13.30;99.90;;;;;;5011495;28;20814;-55
2023/10/02 05:48:37;;;;;;;11.00;6.70;;;13.30;99.90;;;;;;5011461;28;20818;-55
2023/10/02 05:51:09;;;;;;;12.55;6.90;;;13.30;99.90;;;;;;5004969;28;20459;-54
2023/10/02 05:53:37;;;;;;;13.90;6.60;;;13.30;1.40;;;;;;5008887;28;20220;-54
2023/10/02 05:56:12;;;;;;;16.10;7.37;;;13.40;99.90;;;;;;5005089;28;20526;-54
2023/10/02 05:58:41;;;;;;;9.17;7.17;;;13.50;99.90;;;;;;5012750;28;20479;-54
2023/10/02 06:01:18;;;;;;;9.83;6.60;;;13.60;99.90;;;;;;5009711;28;20464;-57
2023/10/02 06:03:53;;;;;;;13.67;6.70;;;13.70;99.90;;;;;;5004264;28;20458;-57
2023/10/02 06:06:21;;;;;;;9.37;6.60;;;13.80;99.90;;;;;;5012073;28;20459;-58
2023/10/02 06:08:54;;;;;;;13.07;6.80;;;13.80;99.90;;;;;;5013352;28;20477;-58
2023/10/02 06:11:28;;;;;;;10.43;7.07;;;13.90;99.90;;;;;;5013263;28;20483;-57
2023/10/02 06:13:58;;;;;;;11.63;6.47;;;14.00;99.90;;;;;;5007166;28;20471;-56
2023/10/02 06:16:26;;;;;;;10.20;6.70;;;14.10;99.90;;;;;;5012568;28;20451;-57
2023/10/02 06:19:06;;;;;;;14.37;8.60;;;14.20;99.90;;;;;;5013597;28;20484;-57
2023/10/02 06:21:40;;;;;;;15.43;8.27;;;14.20;99.90;;;;;;5010144;28;20475;-58
2023/10/02 06:24:09;;;;;;;14.73;8.70;;;14.30;99.90;;;;;;5006665;28;20559;-57
2023/10/02 06:26:49;;;;;;;34.70;12.00;;;14.40;99.90;;;;;;5009816;28;20835;-57
2023/10/02 06:29:22;;;;;;;18.50;9.87;;;14.40;99.90;;;;;;5009948;28;20949;-57
2023/10/02 06:31:51;;;;;;;14.63;8.67;;;14.50;99.90;;;;;;5013521;28;20500;-57
2023/10/02 06:34:18;;;;;;;13.47;8.80;;;14.60;99.90;;;;;;5013224;28;20462;-58
2023/10/02 06:36:48;;;;;;;19.23;9.67;;;14.70;99.90;;;;;;5010881;28;20464;-58
2023/10/02 06:39:17;;;;;;;14.30;8.77;;;14.70;99.90;;;;;;5003426;28;20484;-52
2023/10/02 06:41:45;;;;;;;11.83;8.50;;;14.80;99.90;;;;;;5005428;28;20483;-52
2023/10/02 06:44:18;;;;;;;18.50;8.43;;;14.90;99.90;;;;;;5004580;28;20510;-54
2023/10/02 06:46:53;;;;;;;18.03;9.00;;;14.90;99.90;;;;;;5011544;28;20466;-55
2023/10/02 06:49:21;;;;;;;14.43;8.80;;;15.00;99.90;;;;;;5007385;28;20530;-56
2023/10/02 06:51:49;;;;;;;14.83;9.20;;;15.10;99.90;;;;;;5001081;28;20506;-55
2023/10/02 06:54:18;;;;;;;20.67;9.83;;;15.20;99.90;;;;;;5005894;28;20510;-56
2023/10/02 06:56:46;;;;;;;14.03;8.53;;;15.30;99.90;;;;;;5008390;28;20980;-55
2023/10/02 06:59:12;;;;;;;14.17;9.10;;;15.40;99.90;;;;;;5009724;28;20529;-56
2023/10/02 07:02:01;;;;;;;15.07;9.20;;;15.40;99.90;;;;;;5008357;28;20479;-55
2023/10/02 07:04:29;;;;;;;13.10;9.10;;;15.50;99.90;;;;;;5001605;28;20546;-57
2023/10/02 07:07:02;;;;;;;15.30;9.77;;;15.60;99.90;;;;;;5007596;28;20539;-56
2023/10/02 07:09:33;;;;;;;14.27;8.90;;;15.70;99.90;;;;;;5007537;28;20923;-56
2023/10/02 07:12:08;;;;;;;15.40;8.97;;;15.80;99.90;;;;;;5001552;28;20982;-55
2023/10/02 07:14:36;;;;;;;12.93;7.87;;;15.90;99.90;;;;;;5006036;28;20979;-56
2023/10/02 07:17:11;;;;;;;11.70;8.37;;;16.00;99.90;;;;;;5003460;28;20464;-55
2023/10/02 07:19:39;;;;;;;14.63;8.90;;;16.00;99.90;;;;;;5001746;28;20494;-56
2023/10/02 07:22:11;;;;;;;18.47;9.23;;;16.10;28.80;;;;;;5009849;28;20566;-57
2023/10/02 07:24:40;;;;;;;18.70;10.00;;;16.20;32.00;;;;;;5006672;28;20460;-56
2023/10/02 07:27:22;;;;;;;14.90;9.20;;;16.30;31.70;;;;;;5005580;28;20471;-55
2023/10/02 07:29:51;;;;;;;17.10;9.67;;;16.40;41.30;;;;;;5004945;28;20503;-57
2023/10/02 07:32:18;;;;;;;18.93;10.80;;;16.50;39.60;;;;;;5012207;28;20479;-56
2023/10/02 07:34:46;;;;;;;17.00;9.00;;;16.60;43.20;;;;;;5008567;28;20460;-55
2023/10/02 07:37:15;;;;;;;16.80;9.83;;;16.70;45.10;;;;;;5004048;28;20486;-56
2023/10/02 07:39:44;;;;;;;16.00;9.63;;;16.80;52.20;;;;;;5007394;28;20492;-56
2023/10/02 07:42:11;;;;;;;15.37;9.90;;;16.90;55.40;;;;;;5001506;28;21085;-56
2023/10/02 07:44:38;;;;;;;15.83;9.37;;;17.00;62.10;;;;;;5004162;28;20521;-57
2023/10/02 07:47:10;;;;;;;18.87;10.67;;;17.00;69.20;;;;;;5006062;28;20950;-56
2023/10/02 07:49:38;;;;;;;23.20;10.13;;;17.20;70.20;;;;;;4996982;28;20763;-58
2023/10/02 07:52:06;;;;;;;21.00;10.57;;;17.30;69.30;;;;;;5010439;28;20487;-57
2023/10/02 07:54:44;;;;;;;16.67;10.23;;;17.40;67.20;;;;;;5010830;28;20459;-57
2023/10/02 07:57:13;;;;;;;18.77;9.97;;;17.60;80.40;;;;;;5001557;28;20954;-55
2023/10/02 07:59:40;;;;;;;19.70;9.27;;;17.70;88.30;;;;;;5000611;28;20483;-54
2023/10/02 08:02:21;;;;;;;18.50;9.80;;;17.90;99.90;;;;;;5010787;28;20992;-54
2023/10/02 08:04:48;;;;;;;16.20;9.63;;;18.10;99.90;;;;;;5000716;28;21959;-55
2023/10/02 08:07:14;;;;;;;16.13;9.20;;;18.30;99.90;;;;;;5000919;28;20448;-55
2023/10/02 08:09:47;;;;;;;19.70;8.77;;;18.50;99.90;;;;;;5003593;28;20534;-54
2023/10/02 08:12:29;;;;;;;17.00;9.70;;;18.60;99.90;;;;;;5005319;28;20478;-53
2023/10/02 08:14:59;;;;;;;16.63;9.70;;;18.70;99.90;;;;;;5001633;28;20487;-55
2023/10/02 08:17:59;;;;;;;22.17;10.67;;;18.70;99.90;;;;;;5009465;28;20487;-55
2023/10/02 08:20:20;;;;;;;23.37;12.20;;;18.80;99.90;;;;;;5007963;28;20467;-54
2023/10/02 08:22:48;;;;;;;14.13;9.47;;;18.90;99.90;;;;;;5004310;28;20485;-54
2023/10/02 08:25:16;;;;;;;19.10;9.90;;;19.00;99.90;;;;;;5011589;28;20466;-54
2023/10/02 08:27:46;;;;;;;15.87;10.13;;;19.10;99.90;;;;;;5000737;28;20456;-55
2023/10/02 08:30:27;;;;;;;17.10;10.30;;;19.10;99.90;;;;;;5010819;28;20514;-55
2023/10/02 08:32:54;;;;;;;16.93;9.00;;;19.20;99.90;;;;;;4999644;28;20578;-54
2023/10/02 08:35:21;;;;;;;15.40;9.03;;;19.20;99.90;;;;;;5009371;28;20460;-54
2023/10/02 08:37:54;;;;;;;16.07;9.13;;;19.20;99.90;;;;;;5007803;28;20473;-55
2023/10/02 08:40:21;;;;;;;22.67;10.77;;;19.20;99.90;;;;;;5005336;28;20464;-54
2023/10/02 08:42:52;;;;;;;19.60;10.50;;;19.30;99.90;;;;;;4997712;28;20488;-55
2023/10/02 08:45:20;;;;;;;17.27;9.10;;;19.40;99.90;;;;;;5007421;28;20497;-55
2023/10/02 08:47:47;;;;;;;13.90;8.63;;;19.50;99.90;;;;;;5003240;28;20460;-53
2023/10/02 08:50:15;;;;;;;16.20;10.47;;;19.50;99.90;;;;;;5004648;28;21151;-54
2023/10/02 08:52:47;;;;;;;18.03;10.03;;;19.70;99.90;;;;;;5009254;28;20487;-55
2023/10/02 08:55:45;;;;;;;16.50;8.10;;;19.80;99.90;;;;;;5006148;28;20474;-55
2023/10/02 08:58:16;;;;;;;18.53;10.57;;;20.00;99.90;;;;;;5003489;28;20460;-54
2023/10/02 09:01:06;;;;;;;17.13;9.23;;;20.10;99.90;;;;;;5004810;28;20466;-55
2023/10/02 09:03:41;;;;;;;16.23;9.13;;;20.20;99.90;;;;;;5005316;28;20486;-53
2023/10/02 09:06:25;;;;;;;21.77;10.50;;;20.40;99.90;;;;;;5010559;28;20529;-54
2023/10/02 09:11:36;;;;;;;16.03;9.47;;;21.10;99.90;;;;;;5009407;28;20475;-55
2023/10/02 09:14:16;;;;;;;17.13;10.30;;;20.90;80.60;;;;;;5010864;28;20447;-55
2023/10/02 09:16:45;;;;;;;17.47;10.30;;;20.90;99.90;;;;;;5005952;28;20950;-55
2023/10/02 09:21:53;;;;;;;18.90;10.33;;;20.90;99.90;;;;;;5003751;28;21000;-55
2023/10/02 09:24:23;;;;;;;19.03;9.40;;;21.00;99.90;;;;;;5003101;28;20464;-55
2023/10/02 09:26:49;;;;;;;20.30;9.57;;;21.00;94.10;;;;;;4991930;28;20467;-54
2023/10/02 09:29:19;;;;;;;24.87;9.43;;;21.10;99.90;;;;;;5005971;28;20538;-54
2023/10/02 09:31:47;;;;;;;15.90;10.27;;;21.20;99.90;;;;;;5012281;28;20911;-54
2023/10/02 09:34:16;;;;;;;17.63;9.43;;;21.10;20.40;;;;;;5010368;28;20510;-54
2023/10/02 09:36:52;;;;;;;17.37;9.90;;;21.10;22.50;;;;;;5008262;28;20460;-53
2023/10/02 09:39:36;;;;;;;14.93;9.07;;;21.30;79.00;;;;;;5012835;28;20541;-56
2023/10/02 09:42:07;;;;;;;14.50;9.50;;;21.40;34.50;;;;;;5011096;28;20487;-55
2023/10/02 09:44:42;;;;;;;17.73;10.27;;;21.60;50.40;;;;;;5012649;28;20761;-55
2023/10/02 09:47:09;;;;;;;16.03;9.60;;;21.60;44.10;;;;;;5009423;28;20462;-54
2023/10/02 09:49:47;;;;;;;14.60;9.60;;;21.60;57.20;;;;;;5005324;28;20989;-54
2023/10/02 09:52:16;;;;;;;20.20;10.00;;;21.60;58.10;;;;;;5006428;28;20524;-54
2023/10/02 09:55:00;;;;;;;14.80;8.50;;;21.70;53.00;;;;;;5007088;28;20741;-54
2023/10/02 09:57:31;;;;;;;14.50;8.50;;;21.80;55.70;;;;;;5008540;28;21112;-54
2023/10/02 10:00:00;;;;;;;14.00;8.47;;;21.80;73.90;;;;;;5007754;28;20483;-55
2023/10/02 10:10:50;;;;;;;17.67;9.90;;;22.20;69.80;;;;;;5005774;28;20462;-55
2023/10/02 10:13:25;;;;;;;21.93;11.13;;;22.30;74.80;;;;;;5007055;28;20487;-55
2023/10/02 10:16:32;;;;;;;16.90;10.20;;;22.30;78.20;;;;;;5009080;28;20546;-54
2023/10/02 10:19:27;;;;;;;14.63;9.23;;;22.30;71.80;;;;;;5009165;28;20479;-55
2023/10/02 10:21:56;;;;;;;15.83;8.83;;;22.40;82.90;;;;;;5008307;28;20574;-53
2023/10/02 10:25:22;;;;;;;17.80;9.50;;;22.40;80.50;;;;;;5013025;28;20470;-56
2023/10/02 10:27:58;;;;;;;16.37;8.50;;;22.60;90.20;;;;;;5011316;28;20487;-54
2023/10/02 10:30:34;;;;;;;14.10;9.03;;;22.70;88.50;;;;;;5013875;28;20458;-56
2023/10/02 10:33:35;;;;;;;14.57;8.03;;;22.80;91.00;;;;;;5009094;28;20533;-54
2023/10/02 10:36:09;;;;;;;15.77;8.00;;;22.90;90.00;;;;;;5009481;28;20452;-56
2023/10/02 10:38:36;;;;;;;15.60;8.50;;;22.80;94.00;;;;;;5008491;28;20459;-55
2023/10/02 10:41:06;;;;;;;15.97;8.10;;;22.80;94.10;;;;;;5012917;28;20543;-55
2023/10/02 10:43:55;;;;;;;14.27;8.90;;;22.80;94.00;;;;;;5006469;28;20472;-54
2023/10/02 10:46:24;;;;;;;13.53;7.67;;;22.80;99.50;;;;;;5009146;28;20448;-55
2023/10/02 10:49:07;;;;;;;17.90;8.30;;;22.80;99.90;;;;;;5011929;28;20489;-55
2023/10/02 10:51:34;;;;;;;12.97;7.90;;;22.70;99.90;;;;;;5011667;28;21027;-54
2023/10/02 10:54:19;;;;;;;16.03;8.43;;;22.80;99.90;;;;;;5012711;28;20510;-55
2023/10/02 10:56:56;;;;;;;13.73;7.60;;;22.90;99.90;;;;;;5009704;28;21008;-60
2023/10/02 10:59:32;;;;;;;14.47;7.50;;;23.00;99.90;;;;;;5008037;28;20539;-59
2023/10/02 11:02:12;;;;;;;13.93;8.00;;;23.00;99.90;;;;;;5012266;28;20529;-59
2023/10/02 11:04:47;;;;;;;12.17;7.57;;;23.00;99.90;;;;;;5013489;28;20454;-58
2023/10/02 11:07:21;;;;;;;13.23;8.50;;;23.00;99.90;;;;;;5012543;28;20453;-59
2023/10/02 11:10:14;;;;;;;13.00;7.87;;;23.10;99.90;;;;;;5011026;28;20459;-55
2023/10/02 11:12:54;;;;;;;13.10;8.20;;;23.10;99.90;;;;;;5011427;28;20479;-54
2023/10/02 11:15:44;;;;;;;17.90;7.37;;;23.20;99.90;;;;;;5003752;28;20459;-55
2023/10/02 11:18:18;;;;;;;15.30;8.23;;;23.20;99.90;;;;;;4998917;28;20456;-55
2023/10/02 11:20:49;;;;;;;13.63;8.90;;;23.30;99.90;;;;;;5011229;28;20475;-55
2023/10/02 11:23:23;;;;;;;18.13;7.83;;;23.50;99.90;;;;;;5012150;28;20992;-55
2023/10/02 11:25:54;;;;;;;12.97;8.10;;;23.50;99.90;;;;;;5012561;28;20466;-54
2023/10/02 11:28:31;;;;;;;12.40;7.87;;;23.40;99.90;;;;;;5005700;28;20459;-55
2023/10/02 11:31:29;;;;;;;15.80;9.10;;;23.30;99.90;;;;;;5012149;28;20459;-54
2023/10/02 11:34:00;;;;;;;18.40;7.87;;;23.40;99.90;;;;;;5009297;28;20539;-55
2023/10/02 11:36:33;;;;;;;10.20;7.30;;;23.40;99.90;;;;;;5002836;28;21098;-55
2023/10/02 11:39:01;;;;;;;16.23;9.00;;;23.50;99.90;;;;;;5004820;28;20498;-56
2023/10/02 11:41:28;;;;;;;15.87;7.70;;;23.50;99.90;;;;;;5011978;28;20482;-54
2023/10/02 11:43:56;;;;;;;14.37;8.60;;;23.60;99.90;;;;;;5011259;28;20529;-55
2023/10/02 11:46:22;;;;;;;16.20;9.13;;;23.70;99.90;;;;;;5004716;28;20452;-55
2023/10/02 11:48:51;;;;;;;14.17;9.13;;;23.70;99.90;;;;;;5010485;28;20443;-55
2023/10/02 11:51:17;;;;;;;17.63;9.80;;;23.70;99.90;;;;;;5006433;28;20475;-56
2023/10/02 11:53:45;;;;;;;13.90;8.90;;;23.90;99.90;;;;;;5010919;28;20513;-55
2023/10/02 11:56:12;;;;;;;18.30;8.50;;;24.00;99.90;;;;;;5009467;28;20455;-55
2023/10/02 11:58:38;;;;;;;13.77;9.13;;;24.00;99.90;;;;;;5005325;28;21221;-55
2023/10/02 12:01:06;;;;;;;13.33;8.27;;;24.00;99.90;;;;;;5011452;28;20911;-54
2023/10/02 12:03:36;;;;;;;29.70;9.80;;;24.10;99.90;;;;;;4999769;28;20448;-55
2023/10/02 12:06:03;;;;;;;20.10;8.10;;;24.20;99.90;;;;;;5004263;28;20543;-55
2023/10/02 12:08:33;;;;;;;14.70;8.60;;;24.20;99.90;;;;;;5010970;28;20866;-55
2023/10/02 12:11:01;;;;;;;21.33;8.97;;;24.20;99.90;;;;;;5011079;28;20453;-55
2023/10/02 12:13:28;;;;;;;13.70;8.37;;;24.20;99.90;;;;;;5011831;28;20523;-54
2023/10/02 12:15:56;;;;;;;13.97;9.13;;;24.20;99.90;;;;;;5009381;28;20460;-56
2023/10/02 12:18:22;;;;;;;16.23;9.40;;;24.30;99.90;;;;;;5009690;28;20459;-55
2023/10/02 12:20:49;;;;;;;14.20;10.00;;;24.40;99.90;;;;;;5003885;28;20488;-55
2023/10/02 12:23:16;;;;;;;17.03;9.00;;;24.50;99.90;;;;;;4998923;28;20461;-55
2023/10/02 12:25:46;;;;;;;16.33;8.03;;;24.60;99.90;;;;;;4998695;28;20928;-55
2023/10/02 12:28:15;;;;;;;13.63;9.00;;;24.70;99.90;;;;;;5009483;28;20456;-55
2023/10/02 12:30:42;;;;;;;23.27;9.70;;;24.80;99.90;;;;;;5010630;28;20472;-54
2023/10/02 12:33:09;;;;;;;16.00;8.73;;;24.90;99.90;;;;;;5001726;28;20480;-55
2023/10/02 12:35:36;;;;;;;18.10;8.63;;;25.00;99.90;;;;;;5004143;28;20459;-55
2023/10/02 12:38:03;;;;;;;22.83;10.37;;;24.90;99.90;;;;;;5011181;28;20543;-55
2023/10/02 12:40:33;;;;;;;21.77;9.40;;;24.90;99.90;;;;;;5008632;28;20486;-55
2023/10/02 12:43:01;;;;;;;25.13;8.67;;;24.90;99.90;;;;;;4995420;28;20487;-55
2023/10/02 12:45:34;;;;;;;15.90;9.03;;;25.00;99.90;;;;;;5007648;28;20467;-55
2023/10/02 12:48:06;;;;;;;15.73;9.13;;;25.00;99.90;;;;;;5010967;28;20554;-54
2023/10/02 12:50:37;;;;;;;16.80;9.63;;;25.10;99.90;;;;;;5008576;28;20451;-55
2023/10/02 12:53:04;;;;;;;11.67;8.20;;;25.10;99.90;;;;;;5000245;28;20490;-55
2023/10/02 12:55:32;;;;;;;13.03;9.20;;;25.20;99.90;;;;;;5004572;28;20490;-55
2023/10/02 12:57:59;;;;;;;11.30;7.67;;;25.30;99.90;;;;;;5011937;28;20587;-54
2023/10/02 13:00:25;;;;;;;14.63;9.30;;;25.40;99.90;;;;;;5012001;28;20565;-54
2023/10/02 13:02:53;;;;;;;14.63;9.07;;;25.40;99.90;;;;;;5001811;28;20457;-55
2023/10/02 13:05:20;;;;;;;14.03;9.40;;;25.30;99.90;;;;;;5006341;28;20447;-55
2023/10/02 13:07:48;;;;;;;13.80;9.13;;;25.30;99.90;;;;;;5010778;28;20457;-55
2023/10/02 13:10:15;;;;;;;20.63;9.37;;;25.30;99.90;;;;;;5011146;28;20460;-55
2023/10/02 13:12:41;;;;;;;15.13;9.53;;;25.30;99.90;;;;;;5011816;28;20486;-55
2023/10/02 13:15:13;;;;;;;12.57;7.80;;;25.40;99.90;;;;;;5012113;28;20494;-56
2023/10/02 13:17:40;;;;;;;20.47;8.00;;;25.30;99.90;;;;;;5010165;28;20972;-55
2023/10/02 13:20:10;;;;;;;13.13;9.30;;;25.10;99.90;;;;;;5006457;28;20483;-55
2023/10/02 13:22:37;;;;;;;13.37;8.90;;;25.00;99.90;;;;;;5011785;28;20471;-55
2023/10/02 13:25:05;;;;;;;13.17;8.50;;;25.00;99.90;;;;;;5008674;28;20503;-55
2023/10/02 13:27:32;;;;;;;13.73;8.90;;;24.90;99.90;;;;;;5000083;28;20449;-55